Time;durP1;ratioP1;P1;durP2;ratioP2;P2;SDS_P1;SDS_P2;PMS_P1;PMS_P2;Temp;Humidity;BMP_temperature;BMP_pressure;BME280_temperature;BME280_humidity;BME280_pressure;Samples;Min_cycle;Max_cycle;Signal;HPM_P1;HPM_P2
2023/03/03 00:00:02;;;;;;;19.63;16.97;;;;;;;7.90;42.22;98090.00;8383739;28;20229;-75
2023/03/03 00:04:04;;;;;;;21.33;15.57;;;;;;;7.57;42.54;98060.97;8382103;28;20316;-75
2023/03/03 00:08:07;;;;;;;20.03;16.17;;;;;;;7.82;42.49;98081.66;8383382;28;20232;-75
2023/03/03 00:12:21;;;;;;;19.50;15.37;;;;;;;7.94;42.07;98086.44;8383024;28;20236;-75
2023/03/03 00:16:30;;;;;;;20.60;16.03;;;;;;;7.72;42.15;98068.22;8383140;28;20229;-76
2023/03/03 00:20:36;;;;;;;20.43;16.07;;;;;;;7.81;42.37;98085.13;8382885;28;20232;-75
2023/03/03 00:24:39;;;;;;;22.00;17.10;;;;;;;7.67;42.31;98098.44;8382608;28;20225;-75
2023/03/03 00:28:45;;;;;;;20.67;16.73;;;;;;;7.62;42.40;98096.00;8381907;28;20224;-76
2023/03/03 00:32:51;;;;;;;21.03;16.73;;;;;;;7.57;42.66;98102.19;8382404;28;20233;-76
2023/03/03 00:36:55;;;;;;;22.97;17.43;;;;;;;7.64;42.33;98091.66;8382294;28;20295;-78
2023/03/03 00:40:59;;;;;;;20.20;15.90;;;;;;;7.40;42.82;98084.66;8382157;28;20236;-76
2023/03/03 00:45:04;;;;;;;19.63;16.53;;;;;;;7.13;42.70;98035.63;8381678;28;20236;-75
2023/03/03 00:49:22;;;;;;;21.53;16.70;;;;;;;7.46;42.52;98106.81;8381821;28;20232;-75
2023/03/03 00:53:26;;;;;;;19.90;16.50;;;;;;;7.49;42.83;98104.16;8381308;28;20332;-75
2023/03/03 00:57:32;;;;;;;20.83;15.97;;;;;;;7.39;42.97;98107.00;8381418;28;20225;-75
2023/03/03 01:01:41;;;;;;;20.43;16.33;;;;;;;7.23;42.86;98106.63;8381108;28;20228;-75
2023/03/03 01:05:47;;;;;;;20.87;16.57;;;;;;;7.31;42.83;98103.81;8380910;28;20232;-75
2023/03/03 01:09:50;;;;;;;21.20;16.07;;;;;;;7.25;42.77;98114.28;8379745;28;20220;-75
2023/03/03 01:13:53;;;;;;;21.13;16.10;;;;;;;7.16;43.01;98117.97;8380858;28;20233;-76
2023/03/03 01:17:56;;;;;;;22.13;16.63;;;;;;;7.20;43.01;98111.84;8380682;28;20276;-76
2023/03/03 01:22:03;;;;;;;22.03;15.77;;;;;;;7.13;42.58;98097.44;8381032;28;20232;-76
2023/03/03 01:26:06;;;;;;;22.30;16.07;;;;;;;6.92;42.73;98064.59;8380891;28;20231;-75
2023/03/03 01:30:10;;;;;;;21.73;15.50;;;;;;;6.72;42.99;98037.69;8380771;28;20225;-75
2023/03/03 01:34:12;;;;;;;20.30;16.23;;;;;;;6.87;43.26;98087.03;8380644;28;20229;-75
2023/03/03 01:38:18;;;;;;;18.97;15.40;;;;;;;6.98;43.01;98082.44;8380399;28;20229;-76
2023/03/03 01:42:21;;;;;;;19.77;15.63;;;;;;;7.02;42.86;98089.19;8380384;28;20432;-75
2023/03/03 01:46:35;;;;;;;18.10;15.20;;;;;;;6.90;42.41;98067.19;8380031;28;20224;-76
2023/03/03 01:50:42;;;;;;;19.83;15.00;;;;;;;6.94;42.44;98073.09;8380202;28;20221;-75
2023/03/03 01:54:51;;;;;;;20.90;15.23;;;;;;;6.95;42.27;98085.06;8379425;28;20324;-76
2023/03/03 01:58:59;;;;;;;19.13;14.73;;;;;;;7.03;42.22;98083.16;8379622;28;20225;-76
2023/03/03 02:03:02;;;;;;;15.67;13.23;;;;;;;6.88;42.34;98073.28;8379551;28;20237;-75
2023/03/03 02:07:09;;;;;;;18.17;15.00;;;;;;;6.87;42.01;98075.00;8379989;28;20225;-76
2023/03/03 02:11:13;;;;;;;18.50;15.17;;;;;;;6.80;42.25;98076.91;8379314;28;20408;-76
2023/03/03 02:15:19;;;;;;;17.60;14.53;;;;;;;6.81;42.20;98073.44;8378980;28;20265;-75
2023/03/03 02:19:26;;;;;;;18.63;14.30;;;;;;;6.90;42.51;98072.34;8379133;28;20224;-75
2023/03/03 02:23:32;;;;;;;19.43;14.40;;;;;;;6.89;42.50;98072.38;8379872;28;20229;-75
2023/03/03 02:27:37;;;;;;;19.40;14.50;;;;;;;6.87;42.18;98069.84;8389984;28;20221;-76
2023/03/03 02:31:39;;;;;;;18.47;14.70;;;;;;;6.78;42.41;98076.09;8389968;28;20224;-75
2023/03/03 02:35:42;;;;;;;17.60;14.17;;;;;;;6.75;42.86;98083.06;8389730;28;20220;-76
2023/03/03 02:39:45;;;;;;;19.80;15.60;;;;;;;6.71;43.08;98079.72;8389685;28;20287;-76
2023/03/03 02:43:55;;;;;;;17.83;14.47;;;;;;;6.82;42.58;98082.03;8389734;28;20323;-76
2023/03/03 02:47:58;;;;;;;20.00;14.80;;;;;;;6.83;42.64;98083.69;8389901;28;20528;-76
2023/03/03 02:52:01;;;;;;;19.57;14.57;;;;;;;6.69;43.08;98089.22;8389597;28;20241;-76
2023/03/03 02:56:06;;;;;;;17.63;14.60;;;;;;;6.62;42.82;98085.94;8389955;28;20228;-76
2023/03/03 03:00:12;;;;;;;19.43;14.50;;;;;;;6.76;42.62;98083.03;8390013;28;20220;-76
2023/03/03 03:04:16;;;;;;;18.83;15.07;;;;;;;6.61;43.01;98086.84;8389699;28;20229;-76
2023/03/03 03:08:19;;;;;;;18.30;14.10;;;;;;;6.58;43.25;98088.66;8389684;28;20234;-76
2023/03/03 03:12:21;;;;;;;19.00;14.80;;;;;;;6.60;43.33;98080.00;8389317;28;20228;-76
2023/03/03 03:16:27;;;;;;;23.30;15.23;;;;;;;6.55;43.48;98093.88;8389085;28;20229;-76
2023/03/03 03:20:30;;;;;;;19.50;15.63;;;;;;;6.42;43.79;98086.47;8389625;28;20221;-76
2023/03/03 03:24:34;;;;;;;20.67;16.10;;;;;;;6.38;43.78;98081.47;8389459;28;20283;-76
2023/03/03 03:28:37;;;;;;;20.00;16.23;;;;;;;6.62;43.99;98092.84;8389015;28;20236;-76
2023/03/03 03:32:41;;;;;;;22.73;16.87;;;;;;;6.46;44.02;98090.66;8388745;28;20570;-76
2023/03/03 03:36:45;;;;;;;21.20;16.83;;;;;;;6.39;44.31;98098.56;8384487;28;20240;-76
2023/03/03 03:40:48;;;;;;;21.17;16.60;;;;;;;6.45;44.40;98098.41;8383761;28;20229;-76
2023/03/03 03:44:51;;;;;;;21.80;16.63;;;;;;;6.42;44.32;98103.66;8383819;28;20225;-76
2023/03/03 03:48:55;;;;;;;22.77;17.33;;;;;;;6.36;44.48;98085.78;8383623;28;20225;-76
2023/03/03 03:52:57;;;;;;;23.37;17.80;;;;;;;6.16;44.42;98079.41;8383477;28;20244;-75
2023/03/03 03:57:00;;;;;;;22.03;16.97;;;;;;;6.30;44.65;98093.66;8383261;28;20244;-76
2023/03/03 04:01:06;;;;;;;22.80;17.10;;;;;;;6.32;44.47;98081.59;8383163;28;20225;-76
2023/03/03 04:05:11;;;;;;;24.70;18.20;;;;;;;6.35;44.48;98095.25;8383673;28;20221;-76
2023/03/03 04:09:13;;;;;;;22.27;17.70;;;;;;;6.16;44.71;98065.72;8383553;28;20405;-76
2023/03/03 04:13:18;;;;;;;23.33;16.87;;;;;;;6.50;43.94;98096.56;8383217;28;20411;-76
2023/03/03 04:17:23;;;;;;;24.13;17.30;;;;;;;5.80;44.92;98035.69;8382658;28;20240;-76
2023/03/03 04:21:27;;;;;;;25.47;18.17;;;;;;;5.92;45.24;98106.56;8382612;28;20236;-76
2023/03/03 04:25:30;;;;;;;26.63;19.60;;;;;;;6.07;45.55;98106.22;8382441;28;20236;-75
2023/03/03 04:29:33;;;;;;;26.70;20.00;;;;;;;6.04;45.46;98098.56;8382135;28;20562;-76
2023/03/03 04:33:36;;;;;;;27.77;20.40;;;;;;;6.06;45.47;98122.50;8381827;28;20246;-76
2023/03/03 04:37:40;;;;;;;28.50;20.23;;;;;;;5.75;45.60;98062.38;8382140;28;20229;-76
2023/03/03 04:41:43;;;;;;;29.93;20.77;;;;;;;5.98;45.87;98111.56;8381512;28;20235;-77
2023/03/03 04:45:46;;;;;;;27.37;20.33;;;;;;;5.98;45.87;98116.72;8381571;28;20228;-77
2023/03/03 04:49:49;;;;;;;30.77;21.60;;;;;;;6.01;45.87;98101.19;8381229;28;20283;-77
2023/03/03 04:53:53;;;;;;;29.10;20.53;;;;;;;5.96;45.91;98100.50;8381214;28;20232;-76
2023/03/03 04:57:56;;;;;;;27.77;20.73;;;;;;;6.06;45.69;98101.94;8381174;28;20236;-76
2023/03/03 05:01:58;;;;;;;29.20;21.47;;;;;;;5.87;46.14;98113.50;8381087;28;20229;-76
2023/03/03 05:06:01;;;;;;;30.47;21.90;;;;;;;5.92;46.41;98123.69;8381384;28;20455;-76
2023/03/03 05:10:08;;;;;;;29.87;22.13;;;;;;;5.98;46.28;98123.59;8380920;28;20229;-76
2023/03/03 05:14:11;;;;;;;30.87;22.93;;;;;;;5.88;46.43;98121.19;8380565;28;20229;-76
2023/03/03 05:18:14;;;;;;;31.33;22.83;;;;;;;5.86;46.60;98129.81;8380639;28;20547;-76
2023/03/03 05:22:17;;;;;;;31.50;23.07;;;;;;;5.91;46.42;98130.56;8380617;28;20225;-76
2023/03/03 05:26:21;;;;;;;31.40;23.20;;;;;;;5.46;46.43;98081.88;8380639;28;20231;-76
2023/03/03 05:30:23;;;;;;;33.63;23.97;;;;;;;5.91;46.39;98134.84;8380236;28;20224;-76
2023/03/03 05:34:26;;;;;;;35.50;25.93;;;;;;;5.79;46.65;98138.56;8379978;28;20224;-76
2023/03/03 05:38:29;;;;;;;38.30;25.80;;;;;;;5.73;46.97;98126.69;8380012;28;20236;-77
2023/03/03 05:42:33;;;;;;;34.87;25.90;;;;;;;5.80;47.11;98133.34;8380170;28;20545;-76
2023/03/03 05:46:36;;;;;;;36.17;25.47;;;;;;;5.79;46.96;98141.13;8379766;28;20558;-76
2023/03/03 05:50:39;;;;;;;36.63;27.20;;;;;;;5.89;46.99;98137.47;8379905;28;20229;-76
2023/03/03 05:54:42;;;;;;;39.73;29.10;;;;;;;5.72;47.48;98142.97;8378539;28;20217;-75
2023/03/03 05:58:46;;;;;;;40.90;29.87;;;;;;;5.72;47.22;98148.09;8378841;28;20551;-76
2023/03/03 06:02:49;;;;;;;42.77;30.27;;;;;;;5.62;47.18;98126.06;8379605;28;20228;-77
2023/03/03 06:06:52;;;;;;;42.97;30.50;;;;;;;5.77;47.51;98151.44;8379728;28;20274;-77
2023/03/03 06:10:56;;;;;;;42.63;31.03;;;;;;;5.85;47.31;98149.53;8379232;28;20223;-76
2023/03/03 06:15:01;;;;;;;41.77;28.40;;;;;;;5.85;47.39;98138.41;8379468;28;20296;-76
2023/03/03 06:19:04;;;;;;;40.93;29.07;;;;;;;6.05;47.09;98161.97;8379229;28;20229;-77
2023/03/03 06:23:07;;;;;;;38.17;27.70;;;;;;;6.18;46.91;98156.53;8379326;28;20220;-75
2023/03/03 06:27:10;;;;;;;39.30;27.43;;;;;;;6.44;46.42;98174.75;8378890;28;20404;-77
2023/03/03 06:31:14;;;;;;;37.10;26.13;;;;;;;6.79;45.54;98182.47;8378923;28;20422;-76
2023/03/03 06:35:17;;;;;;;37.43;26.73;;;;;;;6.91;44.35;98137.53;8378733;28;20236;-76
2023/03/03 06:39:20;;;;;;;37.13;25.97;;;;;;;7.10;45.00;98189.41;8378729;28;20243;-76
2023/03/03 06:43:22;;;;;;;37.97;27.27;;;;;;;6.95;44.97;98194.09;8378941;28;20231;-76
2023/03/03 06:47:27;;;;;;;36.30;25.87;;;;;;;7.03;45.09;98204.19;8393174;22;20231;-67
2023/03/03 06:51:32;;;;;;;36.17;26.97;;;;;;;6.93;45.58;98198.44;8379160;28;20239;-66
2023/03/03 06:55:35;;;;;;;35.20;26.07;;;;;;;6.67;46.05;98209.38;8378246;28;20379;-66
2023/03/03 06:59:38;;;;;;;38.70;27.07;;;;;;;6.70;46.18;98211.88;8377859;28;20232;-66
2023/03/03 07:03:42;;;;;;;36.13;26.13;;;;;;;7.52;45.19;98217.44;8378272;28;20232;-67
2023/03/03 07:07:45;;;;;;;37.03;26.47;;;;;;;7.92;44.29;98224.91;8386101;28;20523;-66
2023/03/03 07:11:48;;;;;;;39.27;27.67;;;;;;;8.27;43.82;98222.16;8381683;28;20220;-67
2023/03/03 07:15:52;;;;;;;35.67;25.90;;;;;;;8.64;42.91;98226.16;8384384;28;20228;-66
2023/03/03 07:19:56;;;;;;;36.00;26.53;;;;;;;8.87;42.48;98225.41;8384223;28;20228;-66
2023/03/03 07:24:02;;;;;;;34.87;25.40;;;;;;;9.11;42.52;98229.75;8384435;28;20229;-67
2023/03/03 07:28:22;;;;;;;37.73;28.20;;;;;;;9.43;41.50;98225.22;8383730;28;20229;-67
2023/03/03 07:32:38;;;;;;;35.50;25.53;;;;;;;9.38;41.51;98171.06;8384015;28;20236;-67
2023/03/03 07:36:43;;;;;;;34.67;26.87;;;;;;;9.95;41.20;98246.56;8416665;28;20224;-67
2023/03/03 07:40:48;;;;;;;36.13;26.27;;;;;;;9.91;40.83;98262.28;8416818;28;20235;-67
2023/03/03 07:44:52;;;;;;;35.53;25.87;;;;;;;10.10;39.93;98249.50;8416084;28;20434;-67
2023/03/03 07:48:58;;;;;;;33.67;24.93;;;;;;;10.64;39.74;98260.38;8416490;28;20410;-66
2023/03/03 07:53:05;;;;;;;36.40;27.03;;;;;;;10.62;38.92;98272.53;8415379;28;20564;-67
2023/03/03 07:57:15;;;;;;;36.60;25.20;;;;;;;10.57;39.24;98265.81;8416019;28;20231;-67
2023/03/03 08:01:35;;;;;;;34.60;24.27;;;;;;;10.97;38.92;98271.13;8415772;28;20236;-68
2023/03/03 08:05:38;;;;;;;35.40;26.77;;;;;;;11.29;38.58;98276.72;8415562;28;20233;-67
2023/03/03 08:09:47;;;;;;;32.00;24.80;;;;;;;11.09;38.93;98283.56;8415207;28;20230;-67
2023/03/03 08:13:50;;;;;;;32.77;26.27;;;;;;;10.46;39.69;98283.50;8415406;28;20221;-68
2023/03/03 08:17:54;;;;;;;35.60;27.13;;;;;;;10.18;40.87;98273.31;8415581;28;20511;-67
2023/03/03 08:22:00;;;;;;;33.87;25.63;;;;;;;9.89;41.09;98272.66;8414465;28;20445;-67
2023/03/03 08:26:05;;;;;;;34.13;25.23;;;;;;;9.72;41.83;98269.88;8415390;28;20405;-67
2023/03/03 08:30:09;;;;;;;35.93;25.83;;;;;;;10.16;40.86;98286.31;8415229;28;20230;-67
2023/03/03 08:34:11;;;;;;;39.10;25.53;;;;;;;9.94;40.84;98247.50;8415120;28;20234;-67
2023/03/03 08:38:16;;;;;;;34.13;26.43;;;;;;;11.11;38.75;98289.53;8414723;28;20279;-68
2023/03/03 08:42:20;;;;;;;33.40;24.47;;;;;;;11.33;38.40;98283.47;8414703;28;20418;-68
2023/03/03 08:46:23;;;;;;;32.57;24.20;;;;;;;11.87;36.63;98284.56;8414530;28;20230;-68
2023/03/03 08:50:26;;;;;;;32.17;24.70;;;;;;;13.00;35.02;98276.75;8414372;28;20232;-68
2023/03/03 08:54:28;;;;;;;29.80;23.50;;;;;;;13.46;34.60;98271.88;8414247;28;20407;-68
2023/03/03 08:58:33;;;;;;;29.90;23.07;;;;;;;13.59;34.50;98280.72;8413873;28;20232;-68
2023/03/03 09:02:38;;;;;;;31.43;24.33;;;;;;;13.76;33.40;98279.03;8413891;28;20221;-68
2023/03/03 09:06:40;;;;;;;30.83;24.43;;;;;;;13.86;34.48;98288.88;8413893;28;20221;-68
2023/03/03 09:10:43;;;;;;;31.73;23.30;;;;;;;14.17;33.42;98283.81;8388414;28;20426;-68
2023/03/03 09:14:49;;;;;;;32.23;24.33;;;;;;;14.35;32.55;98274.97;8380616;28;20242;-68
2023/03/03 09:18:52;;;;;;;26.43;22.00;;;;;;;14.92;32.09;98276.22;8380501;28;20235;-68
2023/03/03 09:22:55;;;;;;;25.67;21.60;;;;;;;15.08;31.42;98290.06;8380559;28;20237;-68
2023/03/03 09:26:59;;;;;;;28.97;23.07;;;;;;;15.15;30.75;98283.53;8380135;28;20236;-69
2023/03/03 09:31:04;;;;;;;28.27;22.93;;;;;;;14.94;31.28;98283.00;8380219;28;20244;-69
2023/03/03 09:35:28;;;;;;;31.23;21.90;;;;;;;15.61;30.58;98287.84;8379331;28;20231;-68
2023/03/03 09:39:31;;;;;;;26.07;21.40;;;;;;;15.73;30.35;98281.91;8379215;28;20346;-69
2023/03/03 09:43:38;;;;;;;26.87;22.33;;;;;;;16.15;29.46;98295.06;8379504;28;20242;-69
2023/03/03 09:48:04;;;;;;;25.00;21.23;;;;;;;16.03;29.39;98289.66;8412316;28;20509;-67
2023/03/03 09:52:18;;;;;;;27.33;21.77;;;;;;;16.00;29.30;98287.22;8412632;28;20236;-68
2023/03/03 09:56:26;;;;;;;25.63;21.13;;;;;;;15.99;29.66;98293.41;8412254;28;20231;-69
2023/03/03 10:00:37;;;;;;;27.80;21.17;;;;;;;16.46;29.05;98299.19;8412257;28;20230;-69
2023/03/03 10:04:46;;;;;;;25.17;21.37;;;;;;;16.80;28.34;98305.72;8412420;28;20230;-69
2023/03/03 10:08:58;;;;;;;24.90;20.00;;;;;;;17.03;27.93;98295.59;8411801;28;20224;-69
2023/03/03 10:13:10;;;;;;;24.23;21.00;;;;;;;16.89;28.37;98306.97;8412296;28;20242;-69
2023/03/03 10:17:33;;;;;;;24.67;18.53;;;;;;;17.23;32.12;98304.75;8412058;28;20572;-69
2023/03/03 10:21:40;;;;;;;20.87;16.50;;;;;;;17.87;39.33;98309.22;8412042;28;20246;-69
2023/03/03 10:25:47;;;;;;;21.73;19.07;;;;;;;18.10;33.20;98303.22;8411690;28;20224;-68
2023/03/03 10:29:58;;;;;;;21.33;19.03;;;;;;;18.15;33.03;98313.41;8411973;28;20228;-68
2023/03/03 10:34:11;;;;;;;21.57;18.80;;;;;;;18.37;30.56;98317.97;8412294;28;20232;-68
2023/03/03 10:38:30;;;;;;;26.60;21.57;;;;;;;17.89;27.11;98316.03;8411930;28;20224;-70
2023/03/03 10:42:44;;;;;;;21.87;19.57;;;;;;;17.88;26.38;98308.31;8411488;28;20223;-70
2023/03/03 10:46:54;;;;;;;21.73;19.00;;;;;;;18.29;26.52;98315.06;8397489;28;20230;-69
2023/03/03 10:51:02;;;;;;;21.63;19.33;;;;;;;17.54;27.05;98306.16;8384754;28;20323;-69
2023/03/03 10:55:31;;;;;;;22.67;19.57;;;;;;;17.66;26.67;98309.72;8384928;28;20240;-70
2023/03/03 10:59:44;;;;;;;21.40;19.10;;;;;;;17.61;26.79;98305.72;8384726;28;20240;-69
2023/03/03 11:04:07;;;;;;;21.50;19.20;;;;;;;16.92;27.36;98309.34;8417317;28;20558;-70
2023/03/03 11:08:14;;;;;;;19.77;17.70;;;;;;;17.59;27.15;98303.22;8417598;28;20226;-69
2023/03/03 11:12:28;;;;;;;21.93;18.43;;;;;;;17.64;26.92;98297.69;8417611;28;20230;-70
2023/03/03 11:16:39;;;;;;;21.27;17.63;;;;;;;16.67;28.01;98310.06;8417612;28;20231;-70
2023/03/03 11:20:48;;;;;;;19.73;17.63;;;;;;;17.07;28.18;98304.91;8416591;28;20236;-69
2023/03/03 11:24:58;;;;;;;21.27;17.83;;;;;;;17.44;27.62;98304.25;8417194;28;20231;-69
2023/03/03 11:29:11;;;;;;;20.77;17.90;;;;;;;17.47;28.29;98293.59;8416798;28;20246;-68
2023/03/03 11:33:19;;;;;;;22.40;17.83;;;;;;;16.85;28.40;98294.16;8416977;28;20416;-69
2023/03/03 11:37:24;;;;;;;20.57;18.57;;;;;;;17.48;27.53;98295.28;8416048;28;20420;-69
2023/03/03 11:41:31;;;;;;;21.77;17.80;;;;;;;16.96;28.67;98289.94;8416704;28;20415;-69
2023/03/03 11:45:42;;;;;;;20.67;18.40;;;;;;;16.03;29.11;98276.59;8416107;28;20536;-69
2023/03/03 11:49:49;;;;;;;20.13;16.50;;;;;;;16.37;28.48;98284.09;8399479;28;20236;-68
2023/03/03 11:53:59;;;;;;;18.20;16.30;;;;;;;17.19;27.86;98280.56;8415895;28;20238;-69
2023/03/03 11:58:08;;;;;;;18.90;16.17;;;;;;;17.24;27.93;98285.47;8414908;28;20235;-69
2023/03/03 12:02:24;;;;;;;17.40;15.47;;;;;;;16.95;27.32;98276.94;8415921;28;20235;-69
2023/03/03 12:06:33;;;;;;;17.90;15.97;;;;;;;17.05;27.62;98267.53;8415770;28;20249;-69
2023/03/03 12:10:41;;;;;;;17.33;14.93;;;;;;;16.70;28.29;98264.59;8415678;28;20229;-69
2023/03/03 12:14:56;;;;;;;19.00;16.07;;;;;;;16.55;27.60;98254.19;8415072;28;20223;-69
2023/03/03 12:19:13;;;;;;;17.53;15.63;;;;;;;16.75;28.72;98249.44;8415762;28;20232;-69
2023/03/03 12:23:31;;;;;;;19.40;15.67;;;;;;;16.72;27.67;98240.03;8415468;28;20232;-68
2023/03/03 12:27:44;;;;;;;17.17;15.37;;;;;;;16.64;27.51;98231.84;8414879;28;20270;-68
2023/03/03 12:31:51;;;;;;;17.00;15.17;;;;;;;16.65;28.12;98230.91;8415085;28;20231;-69
2023/03/03 12:36:03;;;;;;;18.33;15.60;;;;;;;16.58;26.98;98217.41;8415049;28;20225;-69
2023/03/03 12:40:09;;;;;;;18.63;15.90;;;;;;;16.59;27.90;98220.84;8414252;28;20233;-69
2023/03/03 12:44:18;;;;;;;17.03;15.23;;;;;;;16.92;28.27;98214.38;8414649;28;20233;-69
2023/03/03 12:48:25;;;;;;;16.90;15.10;;;;;;;17.10;28.08;98210.53;8414745;28;20232;-69
2023/03/03 12:52:37;;;;;;;25.47;15.07;;;;;;;17.17;28.40;98217.03;8414612;28;20229;-69
2023/03/03 12:56:45;;;;;;;17.50;15.60;;;;;;;16.91;28.55;98212.69;8414516;28;20479;-70
2023/03/03 13:00:53;;;;;;;16.93;14.93;;;;;;;16.43;29.43;98213.16;8413598;28;20231;-69
2023/03/03 13:05:00;;;;;;;16.23;14.53;;;;;;;17.13;28.39;98207.69;8414282;28;20287;-69
2023/03/03 13:09:20;;;;;;;16.80;15.03;;;;;;;16.95;28.25;98220.22;8413788;28;20414;-69
2023/03/03 13:13:28;;;;;;;17.77;15.87;;;;;;;16.82;28.61;98203.69;8414125;28;20224;-68
2023/03/03 13:17:34;;;;;;;17.87;13.90;;;;;;;16.89;27.43;98215.41;8414034;28;20230;-69
2023/03/03 13:21:41;;;;;;;16.43;14.73;;;;;;;17.30;26.80;98203.94;8413689;28;20235;-69
2023/03/03 13:25:50;;;;;;;16.43;14.73;;;;;;;17.42;27.08;98211.88;8396091;28;20509;-68
2023/03/03 13:29:59;;;;;;;16.47;14.77;;;;;;;17.09;27.72;98205.38;8380121;28;20230;-69
2023/03/03 13:34:02;;;;;;;16.77;14.40;;;;;;;17.37;27.01;98192.09;8380192;28;20228;-69
2023/03/03 13:38:06;;;;;;;15.37;13.63;;;;;;;17.39;26.48;98192.84;8380217;28;20524;-69
2023/03/03 13:42:17;;;;;;;16.73;14.67;;;;;;;17.22;27.10;98189.72;8379691;28;20301;-70
2023/03/03 13:46:31;;;;;;;15.70;14.00;;;;;;;17.37;26.99;98172.94;8379780;28;20228;-70
2023/03/03 13:50:39;;;;;;;16.10;13.70;;;;;;;17.60;26.75;98181.81;8379821;28;20229;-69
2023/03/03 13:54:56;;;;;;;15.37;10.60;;;;;;;18.37;41.74;98186.88;8411983;28;20231;-69
2023/03/03 13:59:05;;;;;;;15.03;11.40;;;;;;;18.79;35.74;98191.69;8412556;28;20243;-69
2023/03/03 14:03:27;;;;;;;13.40;11.03;;;;;;;18.89;26.86;98192.72;8412034;28;20236;-68
2023/03/03 14:07:34;;;;;;;15.07;13.40;;;;;;;18.04;27.11;98180.50;8412103;28;20231;-68
2023/03/03 14:11:44;;;;;;;14.30;12.80;;;;;;;17.89;26.49;98185.03;8412117;28;20232;-69
2023/03/03 14:15:55;;;;;;;13.50;12.10;;;;;;;17.82;25.96;98182.94;8411817;28;20234;-68
2023/03/03 14:20:10;;;;;;;12.63;11.30;;;;;;;17.81;26.24;98186.50;8411894;28;20236;-69
2023/03/03 14:24:16;;;;;;;15.23;12.27;;;;;;;17.04;26.14;98174.31;8412315;28;20389;-68
2023/03/03 14:28:20;;;;;;;13.47;11.13;;;;;;;17.30;25.86;98164.66;8412413;28;20227;-69
2023/03/03 14:32:26;;;;;;;12.53;10.63;;;;;;;17.35;25.46;98177.47;8412087;28;20231;-69
2023/03/03 14:36:46;;;;;;;13.30;11.90;;;;;;;17.81;24.89;98176.03;8410200;28;20423;-68
2023/03/03 14:41:05;;;;;;;14.50;11.00;;;;;;;17.43;25.93;98177.75;8411785;28;20237;-68
2023/03/03 14:45:20;;;;;;;12.93;10.53;;;;;;;17.04;25.34;98176.06;8411920;28;20512;-69
2023/03/03 14:49:35;;;;;;;11.33;10.03;;;;;;;16.85;26.18;98176.47;8412164;28;20234;-68
2023/03/03 14:53:39;;;;;;;12.73;10.20;;;;;;;17.14;26.48;98171.91;8411676;28;20237;-68
2023/03/03 14:57:46;;;;;;;12.63;10.63;;;;;;;16.98;26.47;98165.09;8411478;28;20526;-69
2023/03/03 15:01:57;;;;;;;11.60;10.07;;;;;;;16.91;26.58;98160.38;8411709;28;20296;-69
2023/03/03 15:06:01;;;;;;;14.83;11.77;;;;;;;16.06;27.68;98168.47;8412023;28;20549;-68
2023/03/03 15:10:06;;;;;;;15.20;10.83;;;;;;;15.93;27.83;98171.00;8411971;28;20475;-69
2023/03/03 15:14:12;;;;;;;11.80;10.30;;;;;;;15.89;28.68;98168.69;8411387;28;20228;-69
2023/03/03 15:18:15;;;;;;;11.30;9.20;;;;;;;16.50;27.75;98164.75;8411398;28;20411;-69
2023/03/03 15:22:30;;;;;;;11.27;9.80;;;;;;;16.25;28.25;98162.91;8411222;28;20228;-69
2023/03/03 15:26:41;;;;;;;10.50;8.30;;;;;;;16.19;27.98;98165.91;8410878;28;20229;-69
2023/03/03 15:30:51;;;;;;;9.80;8.17;;;;;;;15.84;28.16;98171.59;8410979;28;20229;-69
2023/03/03 15:34:59;;;;;;;12.07;9.10;;;;;;;15.76;28.47;98163.38;8416589;28;20237;-69
2023/03/03 15:39:15;;;;;;;12.10;8.90;;;;;;;15.67;28.95;98163.94;8417044;28;20231;-69
2023/03/03 15:43:22;;;;;;;10.20;8.20;;;;;;;15.35;28.59;98151.94;8416599;28;20229;-69
2023/03/03 15:47:35;;;;;;;9.63;8.63;;;;;;;15.03;29.77;98151.25;8416701;28;20224;-69
2023/03/03 15:51:50;;;;;;;9.93;8.23;;;;;;;14.64;29.66;98140.47;8416560;28;20228;-70
2023/03/03 15:56:15;;;;;;;9.50;8.37;;;;;;;14.48;29.82;98158.72;8416124;28;20248;-69
2023/03/03 16:00:43;;;;;;;11.23;8.13;;;;;;;14.28;30.33;98156.44;8416671;28;20231;-69
2023/03/03 16:04:54;;;;;;;6.70;6.10;;;;;;;13.88;29.02;98169.06;8394731;28;20403;-68
2023/03/03 16:09:03;;;;;;;6.13;4.50;;;;;;;13.68;28.10;98167.53;8382640;28;20227;-69
2023/03/03 16:13:21;;;;;;;4.80;4.10;;;;;;;13.75;26.75;98158.47;8382543;28;20235;-69
2023/03/03 16:17:31;;;;;;;4.40;4.00;;;;;;;13.59;26.88;98168.84;8382315;28;20231;-69
2023/03/03 16:21:50;;;;;;;4.97;4.57;;;;;;;13.71;27.20;98176.91;8382162;28;20556;-69
2023/03/03 16:26:03;;;;;;;4.13;3.37;;;;;;;13.39;27.23;98176.88;8414763;28;20230;-69
2023/03/03 16:30:21;;;;;;;4.23;3.83;;;;;;;13.21;27.06;98176.91;8415164;28;20236;-69
2023/03/03 16:34:32;;;;;;;5.10;4.57;;;;;;;13.04;27.71;98193.34;8414925;28;20279;-69
2023/03/03 16:38:38;;;;;;;4.27;3.50;;;;;;;12.93;28.28;98200.84;8415057;28;20220;-70
2023/03/03 16:42:41;;;;;;;4.27;3.70;;;;;;;12.97;28.55;98199.78;8413462;28;20315;-68
2023/03/03 16:46:48;;;;;;;3.90;3.27;;;;;;;12.75;28.60;98180.97;8414876;28;20231;-69
2023/03/03 16:50:59;;;;;;;4.23;3.27;;;;;;;12.79;28.64;98211.06;8414604;28;20236;-69
2023/03/03 16:55:05;;;;;;;4.93;3.20;;;;;;;12.71;29.10;98208.84;8414404;28;20335;-69
2023/03/03 16:59:22;;;;;;;3.80;3.50;;;;;;;12.63;29.44;98221.41;8414388;28;20239;-69
2023/03/03 17:03:35;;;;;;;4.20;3.80;;;;;;;12.57;29.53;98214.75;8414240;28;20229;-69
2023/03/03 17:07:44;;;;;;;4.47;4.00;;;;;;;12.44;29.80;98229.22;8414157;28;20445;-69
2023/03/03 17:11:56;;;;;;;4.80;4.07;;;;;;;12.36;30.60;98220.97;8413447;28;20229;-68
2023/03/03 17:16:08;;;;;;;5.97;4.60;;;;;;;12.19;31.14;98242.53;8413596;28;20243;-69
2023/03/03 17:20:31;;;;;;;4.50;4.03;;;;;;;12.09;31.74;98242.13;8413651;28;20226;-69
2023/03/03 17:24:39;;;;;;;6.33;4.23;;;;;;;12.05;31.94;98248.34;8413341;28;20254;-69
2023/03/03 17:28:48;;;;;;;4.77;4.23;;;;;;;11.89;32.39;98242.97;8411454;28;20225;-68
2023/03/03 17:33:13;;;;;;;5.90;4.93;;;;;;;11.81;32.30;98239.91;8413410;28;20228;-70
2023/03/03 17:37:26;;;;;;;7.63;5.53;;;;;;;11.71;32.90;98252.44;8413343;28;20223;-69
2023/03/03 17:41:35;;;;;;;5.77;5.07;;;;;;;11.60;32.84;98249.47;8412856;28;20408;-69
2023/03/03 17:45:40;;;;;;;4.90;4.40;;;;;;;11.57;32.54;98262.56;8413047;28;20227;-69
2023/03/03 17:49:57;;;;;;;6.23;5.33;;;;;;;11.24;33.18;98263.13;8412426;28;20239;-68
2023/03/03 17:54:23;;;;;;;8.37;5.23;;;;;;;11.15;33.40;98259.16;8412345;28;20262;-69
2023/03/03 17:58:43;;;;;;;6.13;4.67;;;;;;;11.20;33.42;98279.72;8412244;28;20220;-69
2023/03/03 18:03:00;;;;;;;6.63;4.60;;;;;;;11.26;32.97;98279.44;8411839;28;20232;-69
2023/03/03 18:07:20;;;;;;;5.07;3.90;;;;;;;11.07;33.23;98287.16;8412464;28;20243;-69
2023/03/03 18:11:29;;;;;;;4.70;4.03;;;;;;;11.00;33.53;98268.41;8412482;28;20409;-70
2023/03/03 18:15:44;;;;;;;5.53;4.10;;;;;;;10.76;33.50;98252.97;8412185;28;20226;-70
2023/03/03 18:20:05;;;;;;;4.73;3.97;;;;;;;10.80;33.22;98289.13;8412108;28;20217;-67
2023/03/03 18:24:29;;;;;;;5.33;4.07;;;;;;;10.62;33.49;98294.09;8412264;28;20229;-69
2023/03/03 18:28:46;;;;;;;5.57;4.00;;;;;;;10.70;33.56;98298.97;8412120;28;20250;-69
2023/03/03 18:33:03;;;;;;;13.07;3.97;;;;;;;10.68;33.97;98293.88;8411143;28;20224;-69
2023/03/03 18:37:12;;;;;;;6.27;4.83;;;;;;;10.56;34.48;98294.34;8411933;28;20221;-69
2023/03/03 18:41:23;;;;;;;13.07;10.87;;;;;;;10.41;34.85;98290.59;8411252;28;20424;-69
2023/03/03 18:45:49;;;;;;;13.57;8.30;;;;;;;10.49;34.99;98298.06;8411736;28;20242;-68
2023/03/03 18:50:05;;;;;;;10.37;7.40;;;;;;;10.37;35.02;98294.22;8411110;28;20236;-69
2023/03/03 18:54:27;;;;;;;12.23;8.80;;;;;;;10.30;35.42;98290.13;8411191;28;20224;-68
2023/03/03 18:58:52;;;;;;;11.47;8.97;;;;;;;10.20;35.90;98289.63;8411615;28;20304;-69
2023/03/03 19:02:58;;;;;;;13.60;9.67;;;;;;;10.13;36.01;98296.81;8411018;28;20242;-68
2023/03/03 19:07:17;;;;;;;16.27;11.20;;;;;;;9.89;36.55;98297.72;8413718;28;20245;-68
2023/03/03 19:11:49;;;;;;;11.50;8.90;;;;;;;9.82;37.03;98289.31;8417702;28;20246;-68